Terminal Aerodrome Forecast
Issued by NWS

Home | Current Version | Previous Version | Text Only | Print | Product List | Glossary On
Versions: 1 2 3 4 5 6 7 8 9 10 11 12 13 14 15 16
000
FTUS45 KRIW 031120
TAFJAC
TAF
KJAC 031120Z 0312/0412 20012G18KT P6SM -SN SCT018 OVC035
      TEMPO 0313/0317 3SM -SN BKN021
     FM031800 19010G15KT 5SM -SN SCT018 OVC025
     FM040100 20010KT P6SM -SN SCT025 OVC035
     FM040900 20010KT 3SM -SN OVC025
      AMD LTD TO CLD VIS AND WIND=

USA.gov is the U.S. government's official web portal to all federal, state and local government web resources and services.